Time;durP1;ratioP1;P1;durP2;ratioP2;P2;SDS_P1;SDS_P2;PMS_P1;PMS_P2;Temp;Humidity;BMP_temperature;BMP_pressure;BME280_temperature;BME280_humidity;BME280_pressure;Samples;Min_cycle;Max_cycle;Signal;HPM_P1;HPM_P2
2024/01/04 00:01:12;;;;;;;6.10;1.95;;;7.90;99.90;;;;;;5104380;28;20132;-59
2024/01/04 00:03:38;;;;;;;10.32;2.50;;;7.70;99.90;;;;;;5087634;28;20065;-59
2024/01/04 00:06:04;;;;;;;7.32;2.22;;;8.00;99.90;;;;;;5113574;28;20035;-59
2024/01/04 00:08:30;;;;;;;4.70;1.80;;;7.60;99.90;;;;;;5068085;28;20047;-60
2024/01/04 00:10:56;;;;;;;8.55;1.92;;;8.10;99.90;;;;;;5030127;28;20029;-60
2024/01/04 00:13:22;;;;;;;7.72;1.80;;;8.10;99.90;;;;;;5029669;28;20094;-60
2024/01/04 00:15:48;;;;;;;5.32;1.85;;;7.70;99.90;;;;;;5027730;28;20041;-59
2024/01/04 00:18:13;;;;;;;4.22;1.05;;;7.80;99.90;;;;;;5074442;28;20039;-60
2024/01/04 00:20:39;;;;;;;7.78;1.00;;;7.60;99.90;;;;;;5093464;28;20521;-60
2024/01/04 00:23:05;;;;;;;4.00;0.80;;;7.90;99.90;;;;;;5113003;28;20115;-59
2024/01/04 00:25:30;;;;;;;6.65;0.95;;;7.80;99.90;;;;;;5111069;28;20047;-59
2024/01/04 00:27:56;;;;;;;6.10;0.73;;;7.50;99.90;;;;;;5107765;28;20046;-60
2024/01/04 00:30:22;;;;;;;3.22;0.60;;;8.00;99.90;;;;;;5030086;28;20487;-59
2024/01/04 00:32:48;;;;;;;7.38;1.17;;;8.00;99.90;;;;;;5029375;28;20491;-60
2024/01/04 00:35:14;;;;;;;3.97;0.90;;;7.40;99.90;;;;;;5111995;28;20047;-60
2024/01/04 00:37:39;;;;;;;6.85;1.02;;;7.70;99.90;;;;;;5112441;28;20058;-59
2024/01/04 00:40:06;;;;;;;3.72;0.75;;;7.90;99.90;;;;;;5113169;28;20036;-59
2024/01/04 00:42:32;;;;;;;4.85;0.80;;;7.40;99.90;;;;;;5112900;28;20043;-59
2024/01/04 00:44:57;;;;;;;5.03;0.80;;;7.50;99.90;;;;;;5081070;28;20100;-60
2024/01/04 00:47:23;;;;;;;5.15;1.00;;;7.50;99.90;;;;;;5107869;28;20039;-59
2024/01/04 00:49:48;;;;;;;5.30;0.80;;;7.90;99.90;;;;;;5112922;28;20032;-58
2024/01/04 00:52:14;;;;;;;2.78;0.65;;;7.90;99.90;;;;;;5112789;28;20034;-59
2024/01/04 00:54:40;;;;;;;3.22;0.60;;;7.90;99.90;;;;;;5108976;28;20490;-59
2024/01/04 00:57:06;;;;;;;3.00;0.70;;;7.90;99.90;;;;;;5112665;28;20127;-59
2024/01/04 00:59:31;;;;;;;2.17;0.88;;;7.30;99.90;;;;;;5112836;28;20079;-58
2024/01/04 01:01:57;;;;;;;4.85;1.05;;;7.80;99.90;;;;;;5104056;28;20047;-60
2024/01/04 01:04:23;;;;;;;2.60;0.80;;;7.30;99.90;;;;;;5095497;28;20079;-59
2024/01/04 01:06:48;;;;;;;2.03;0.60;;;7.30;99.90;;;;;;5098149;28;20024;-59
2024/01/04 01:09:14;;;;;;;5.30;0.88;;;7.70;99.90;;;;;;5086636;28;20171;-59
2024/01/04 01:11:40;;;;;;;6.75;0.80;;;7.70;99.90;;;;;;5112351;28;20276;-58
2024/01/04 01:14:05;;;;;;;3.00;0.63;;;7.20;99.90;;;;;;5109914;28;20134;-60
2024/01/04 01:16:31;;;;;;;8.80;0.93;;;7.70;99.90;;;;;;5105252;28;20494;-59
2024/01/04 01:18:57;;;;;;;6.65;1.00;;;7.80;99.90;;;;;;5112030;28;20046;-59
2024/01/04 01:21:23;;;;;;;13.55;1.35;;;7.80;99.90;;;;;;5112330;28;20040;-58
2024/01/04 01:23:48;;;;;;;4.82;1.20;;;7.20;99.90;;;;;;5112105;28;20051;-59
2024/01/04 01:26:14;;;;;;;5.00;1.00;;;7.20;99.90;;;;;;5112075;27;20046;-59
2024/01/04 01:28:40;;;;;;;3.88;1.23;;;7.10;99.90;;;;;;5095429;28;20406;-58
2024/01/04 01:31:06;;;;;;;6.90;1.27;;;7.90;99.90;;;;;;5093536;28;20036;-59
2024/01/04 01:33:32;;;;;;;7.85;1.08;;;7.70;99.90;;;;;;5097985;28;20135;-58
2024/01/04 01:35:57;;;;;;;4.43;0.88;;;7.10;99.90;;;;;;5111761;28;20573;-59
2024/01/04 01:38:23;;;;;;;4.18;0.73;;;7.60;99.90;;;;;;5097230;28;20104;-59
2024/01/04 01:40:50;;;;;;;4.65;0.90;;;7.10;99.90;;;;;;5112055;28;20093;-59
2024/01/04 01:43:16;;;;;;;6.82;1.02;;;7.10;99.90;;;;;;5104552;28;20557;-59
2024/01/04 01:45:41;;;;;;;5.32;0.90;;;7.30;99.90;;;;;;5028760;28;20128;-59
2024/01/04 01:48:07;;;;;;;4.55;0.75;;;7.60;99.90;;;;;;5096630;28;20392;-60
2024/01/04 01:50:34;;;;;;;6.15;0.93;;;7.40;99.90;;;;;;5111771;28;20100;-58
2024/01/04 01:53:00;;;;;;;4.30;0.85;;;7.60;99.90;;;;;;5111657;28;20478;-59
2024/01/04 01:55:26;;;;;;;7.00;0.95;;;7.00;99.90;;;;;;5028513;28;20037;-58
2024/01/04 01:57:52;;;;;;;7.15;0.75;;;7.50;99.90;;;;;;5028369;28;20045;-59
2024/01/04 02:00:19;;;;;;;3.17;0.60;;;7.30;99.90;;;;;;5028745;28;20405;-59
2024/01/04 02:02:48;;;;;;;4.72;0.77;;;7.20;99.90;;;;;;5026956;28;20049;-59
2024/01/04 02:05:14;;;;;;;6.97;0.80;;;7.00;99.90;;;;;;5085835;28;20088;-58
2024/01/04 02:07:40;;;;;;;7.15;0.70;;;7.20;99.90;;;;;;5111138;28;20038;-58
2024/01/04 02:10:07;;;;;;;1.42;0.40;;;7.40;99.90;;;;;;5111468;28;20028;-59
2024/01/04 02:12:33;;;;;;;3.55;0.73;;;7.00;99.90;;;;;;5110933;28;20084;-59
2024/01/04 02:14:58;;;;;;;4.00;0.70;;;7.00;99.90;;;;;;5082158;28;20039;-58
2024/01/04 02:17:25;;;;;;;10.00;0.60;;;7.20;99.90;;;;;;5080050;28;20478;-59
2024/01/04 02:19:51;;;;;;;5.15;0.63;;;7.40;99.90;;;;;;5079541;28;20054;-59
2024/01/04 02:22:17;;;;;;;3.80;0.85;;;7.40;99.90;;;;;;5098881;28;20035;-59
2024/01/04 02:24:44;;;;;;;2.30;0.55;;;7.20;99.90;;;;;;5087906;28;20045;-58
2024/01/04 02:27:10;;;;;;;4.03;0.57;;;7.00;99.90;;;;;;5107155;28;20035;-59
2024/01/04 02:29:36;;;;;;;3.47;0.68;;;7.10;99.90;;;;;;5111154;28;20536;-59
2024/01/04 02:32:02;;;;;;;5.13;0.70;;;7.40;99.90;;;;;;5111063;28;20031;-59
2024/01/04 02:34:27;;;;;;;4.20;0.93;;;7.20;99.90;;;;;;5110811;28;20478;-59
2024/01/04 02:36:53;;;;;;;4.93;1.05;;;7.30;99.90;;;;;;5090985;28;20055;-60
2024/01/04 02:39:19;;;;;;;3.47;0.70;;;7.40;99.90;;;;;;5103354;28;20055;-58
2024/01/04 02:41:44;;;;;;;8.70;1.50;;;7.40;99.90;;;;;;5099648;28;20138;-59
2024/01/04 02:44:10;;;;;;;2.72;0.60;;;7.20;99.90;;;;;;5109385;28;20118;-59
2024/01/04 02:46:36;;;;;;;5.18;0.82;;;7.00;99.90;;;;;;5103779;28;20371;-59
2024/01/04 02:49:01;;;;;;;2.75;0.82;;;7.30;99.90;;;;;;5103898;28;20487;-59
2024/01/04 02:51:27;;;;;;;3.72;0.75;;;7.30;99.90;;;;;;5026669;28;20050;-58
2024/01/04 02:53:53;;;;;;;6.90;0.88;;;7.20;99.90;;;;;;5027365;28;20178;-59
2024/01/04 02:56:19;;;;;;;3.22;0.70;;;7.10;99.90;;;;;;5027819;28;20069;-57
2024/01/04 02:58:47;;;;;;;6.43;0.73;;;7.30;99.90;;;;;;5024860;28;20147;-58
2024/01/04 03:01:22;;;;;;;3.83;0.60;;;7.10;99.90;;;;;;5089453;28;20092;-59
2024/01/04 03:03:52;;;;;;;7.25;0.88;;;7.30;99.90;;;;;;5103898;28;20044;-59
2024/01/04 03:06:35;;;;;;;7.18;0.70;;;7.00;99.90;;;;;;5099028;28;20509;-58
2024/01/04 03:09:01;;;;;;;9.90;0.90;;;7.20;99.90;;;;;;5097531;28;20031;-59
2024/01/04 03:11:27;;;;;;;4.97;0.63;;;7.00;99.90;;;;;;5104966;28;20051;-59
2024/01/04 03:13:52;;;;;;;6.85;0.82;;;6.90;99.90;;;;;;5110583;28;20089;-59
2024/01/04 03:16:19;;;;;;;3.33;0.60;;;7.10;99.90;;;;;;5089022;28;20523;-58
2024/01/04 03:18:45;;;;;;;6.72;0.57;;;6.90;99.90;;;;;;5110282;28;20036;-60
2024/01/04 03:21:11;;;;;;;5.47;0.80;;;6.90;99.90;;;;;;5110451;28;20043;-59
2024/01/04 03:23:36;;;;;;;6.28;0.60;;;6.90;99.90;;;;;;5103565;28;20048;-59
2024/01/04 03:26:02;;;;;;;4.20;0.88;;;7.20;99.90;;;;;;5110264;28;20050;-59
2024/01/04 03:28:28;;;;;;;4.03;0.82;;;6.90;99.90;;;;;;5103429;28;20036;-60
2024/01/04 03:30:53;;;;;;;4.60;0.47;;;6.90;99.90;;;;;;5110277;28;20032;-59
2024/01/04 03:33:19;;;;;;;5.40;0.60;;;7.20;99.90;;;;;;5110477;28;20032;-58
2024/01/04 03:35:45;;;;;;;7.95;1.00;;;7.10;99.90;;;;;;5110385;28;20040;-60
2024/01/04 03:38:10;;;;;;;8.55;0.93;;;7.00;99.90;;;;;;5110396;28;20039;-60
2024/01/04 03:40:36;;;;;;;2.78;0.55;;;6.90;99.90;;;;;;5105561;28;20115;-58
2024/01/04 03:43:03;;;;;;;5.07;0.68;;;7.10;99.90;;;;;;5026419;28;20430;-59
2024/01/04 03:45:32;;;;;;;3.10;0.60;;;6.90;99.90;;;;;;5090952;28;20066;-59
2024/01/04 03:47:58;;;;;;;4.95;0.70;;;7.00;99.90;;;;;;5099431;28;20398;-59
2024/01/04 03:50:24;;;;;;;6.43;0.68;;;6.90;99.90;;;;;;5112448;28;20036;-58
2024/01/04 03:52:50;;;;;;;5.22;1.10;;;7.10;99.90;;;;;;5107591;28;20032;-59
2024/01/04 03:55:16;;;;;;;5.70;0.55;;;7.00;99.90;;;;;;5113926;27;20043;-59
2024/01/04 03:57:45;;;;;;;6.75;0.85;;;6.80;99.90;;;;;;5102295;28;20488;-59
2024/01/04 04:00:11;;;;;;;5.45;0.77;;;6.80;99.90;;;;;;5030262;28;20097;-58
2024/01/04 04:02:37;;;;;;;11.32;0.90;;;6.80;99.90;;;;;;5030215;28;20449;-58
2024/01/04 04:05:03;;;;;;;3.47;0.73;;;6.80;99.90;;;;;;5030079;28;20029;-59
2024/01/04 04:07:29;;;;;;;4.25;0.82;;;7.00;99.90;;;;;;5030163;28;20042;-58
2024/01/04 04:09:56;;;;;;;4.20;0.80;;;7.00;99.90;;;;;;5030237;28;20033;-58
2024/01/04 04:12:22;;;;;;;4.40;1.02;;;6.70;99.90;;;;;;5103824;28;20035;-59
2024/01/04 04:14:48;;;;;;;2.53;0.60;;;6.60;99.90;;;;;;5113584;28;20039;-58
2024/01/04 04:17:17;;;;;;;8.35;0.95;;;7.00;99.90;;;;;;5044776;28;20041;-58
2024/01/04 04:19:43;;;;;;;4.35;0.73;;;6.90;99.90;;;;;;5030031;28;20035;-59
2024/01/04 04:22:09;;;;;;;4.00;0.75;;;6.90;99.90;;;;;;5029810;28;20053;-58
2024/01/04 04:24:35;;;;;;;4.70;0.85;;;7.00;99.90;;;;;;5085947;28;20039;-58
2024/01/04 04:27:00;;;;;;;3.05;0.65;;;6.70;99.90;;;;;;5113048;28;20119;-59
2024/01/04 04:29:26;;;;;;;6.57;0.60;;;6.80;99.90;;;;;;5027585;28;20120;-59
2024/01/04 04:31:51;;;;;;;5.32;0.88;;;6.80;99.90;;;;;;5109019;28;20093;-58
2024/01/04 04:34:17;;;;;;;5.45;0.88;;;6.70;99.90;;;;;;5111707;28;20032;-59
2024/01/04 04:36:43;;;;;;;4.88;0.75;;;6.80;99.90;;;;;;5040565;28;20543;-58
2024/01/04 04:39:09;;;;;;;6.60;0.80;;;6.80;99.90;;;;;;5113318;28;20546;-57
2024/01/04 04:41:35;;;;;;;3.50;0.80;;;6.70;99.90;;;;;;5112855;28;20474;-59
2024/01/04 04:44:00;;;;;;;5.90;0.73;;;6.80;99.90;;;;;;5110541;28;20051;-59
2024/01/04 04:46:26;;;;;;;5.05;0.88;;;6.60;99.90;;;;;;5029561;28;20110;-59
2024/01/04 04:48:56;;;;;;;8.57;0.93;;;6.50;99.90;;;;;;5029653;28;20030;-58
2024/01/04 04:51:25;;;;;;;6.05;0.70;;;6.60;99.90;;;;;;5029204;28;20037;-59
2024/01/04 04:53:51;;;;;;;4.05;0.70;;;6.50;99.90;;;;;;5029466;28;20125;-58
2024/01/04 04:56:17;;;;;;;6.82;0.93;;;6.50;99.90;;;;;;5029642;28;20502;-59
2024/01/04 04:58:43;;;;;;;5.43;1.00;;;6.50;99.90;;;;;;5029037;28;20065;-59
2024/01/04 05:01:09;;;;;;;3.13;0.82;;;6.60;99.90;;;;;;5029133;28;20076;-58
2024/01/04 05:03:35;;;;;;;5.68;0.80;;;6.70;99.90;;;;;;5051523;28;20047;-59
2024/01/04 05:06:01;;;;;;;2.67;0.50;;;6.60;99.90;;;;;;5112442;28;20035;-58
2024/01/04 05:08:27;;;;;;;5.60;0.60;;;6.60;99.90;;;;;;5112451;28;20539;-58
2024/01/04 05:10:52;;;;;;;8.43;1.05;;;6.60;99.90;;;;;;5112348;28;20039;-58
2024/01/04 05:13:18;;;;;;;4.10;0.63;;;6.50;99.90;;;;;;5100866;28;20045;-58
2024/01/04 05:15:44;;;;;;;6.10;1.20;;;6.60;99.90;;;;;;5081371;28;20035;-58
2024/01/04 05:18:09;;;;;;;6.88;1.15;;;6.40;99.90;;;;;;5100726;28;20035;-59
2024/01/04 05:20:36;;;;;;;4.03;0.80;;;6.40;99.90;;;;;;5112358;28;20036;-59
2024/01/04 05:23:02;;;;;;;5.43;1.05;;;6.50;99.90;;;;;;5105945;28;20050;-58
2024/01/04 05:25:27;;;;;;;6.45;0.70;;;6.30;99.90;;;;;;5018571;28;20473;-59
2024/01/04 05:27:53;;;;;;;4.70;0.85;;;6.60;99.90;;;;;;5100717;28;20057;-58
2024/01/04 05:30:19;;;;;;;3.83;0.70;;;6.60;99.90;;;;;;5111433;28;20039;-59
2024/01/04 05:32:44;;;;;;;7.35;1.05;;;6.50;99.90;;;;;;5112024;28;20027;-59
2024/01/04 05:35:11;;;;;;;4.53;0.90;;;6.60;99.90;;;;;;5079001;28;20049;-59
2024/01/04 05:37:38;;;;;;;5.00;0.70;;;6.50;99.90;;;;;;5104944;28;20122;-58
2024/01/04 05:40:04;;;;;;;2.75;0.60;;;6.50;99.90;;;;;;5107037;28;20051;-59
2024/01/04 05:42:30;;;;;;;4.10;0.60;;;6.30;99.90;;;;;;5111374;28;20118;-59
2024/01/04 05:44:56;;;;;;;2.25;0.60;;;6.40;99.90;;;;;;5111858;28;20692;-58
2024/01/04 05:47:21;;;;;;;4.00;0.77;;;6.60;99.90;;;;;;5108712;28;20035;-59
2024/01/04 05:49:47;;;;;;;5.53;0.80;;;6.80;99.90;;;;;;5107430;28;20035;-58
2024/01/04 05:52:13;;;;;;;2.78;0.60;;;6.50;99.90;;;;;;5027766;28;20124;-58
2024/01/04 05:54:39;;;;;;;5.65;0.95;;;6.20;99.90;;;;;;5027316;28;20038;-58
2024/01/04 05:57:05;;;;;;;5.30;0.75;;;6.80;99.90;;;;;;5028905;28;20535;-59
2024/01/04 05:59:31;;;;;;;4.28;0.70;;;6.50;99.90;;;;;;5060317;28;20043;-60
2024/01/04 06:01:57;;;;;;;3.20;0.70;;;6.60;99.90;;;;;;5094001;28;20032;-58
2024/01/04 06:04:22;;;;;;;6.55;1.08;;;6.60;99.90;;;;;;5110541;28;20047;-57
2024/01/04 06:06:48;;;;;;;5.60;0.65;;;6.50;99.90;;;;;;5027636;28;20069;-58
2024/01/04 06:09:14;;;;;;;3.00;0.75;;;6.50;99.90;;;;;;5031230;28;20094;-57
2024/01/04 06:11:39;;;;;;;3.80;0.82;;;6.30;99.90;;;;;;5110595;28;20498;-57
2024/01/04 06:14:06;;;;;;;6.18;0.70;;;6.00;99.90;;;;;;5103657;28;20048;-57
2024/01/04 06:16:32;;;;;;;6.68;0.70;;;6.20;99.90;;;;;;5111382;28;20169;-58
2024/01/04 06:18:58;;;;;;;8.38;0.75;;;6.50;99.90;;;;;;5111214;28;20047;-57
2024/01/04 06:21:24;;;;;;;3.60;0.80;;;6.40;99.90;;;;;;5111248;28;20036;-58
2024/01/04 06:23:50;;;;;;;3.67;0.60;;;6.20;99.90;;;;;;5104469;28;20394;-58
2024/01/04 06:26:19;;;;;;;4.53;0.77;;;6.50;99.90;;;;;;5110661;28;20038;-57
2024/01/04 06:28:45;;;;;;;4.55;0.63;;;6.30;99.90;;;;;;5100336;28;20035;-58
2024/01/04 06:31:11;;;;;;;4.82;0.57;;;6.80;99.90;;;;;;5109434;28;20046;-58
2024/01/04 06:33:37;;;;;;;3.80;0.70;;;6.20;99.90;;;;;;5104567;28;20043;-57
2024/01/04 06:36:03;;;;;;;5.43;0.77;;;6.10;99.90;;;;;;5058478;28;20047;-57
2024/01/04 06:38:29;;;;;;;5.28;1.02;;;6.10;99.90;;;;;;5091049;28;20050;-57
2024/01/04 06:40:58;;;;;;;7.10;0.60;;;6.40;99.90;;;;;;5031267;28;20511;-57
2024/01/04 06:43:27;;;;;;;5.13;1.33;;;6.40;99.90;;;;;;5022387;28;20041;-57
2024/01/04 06:45:52;;;;;;;3.40;0.90;;;6.20;99.90;;;;;;5098343;28;20089;-57
2024/01/04 06:48:18;;;;;;;6.25;0.60;;;6.00;99.90;;;;;;5101207;28;20042;-59
2024/01/04 06:50:44;;;;;;;3.97;0.60;;;6.40;99.90;;;;;;5111041;28;20047;-58
2024/01/04 06:53:14;;;;;;;4.97;0.60;;;6.30;99.90;;;;;;5110439;28;20036;-60
2024/01/04 06:55:40;;;;;;;4.55;0.85;;;6.30;99.90;;;;;;5111019;28;20089;-57
2024/01/04 06:58:08;;;;;;;1.95;0.70;;;6.40;99.90;;;;;;5106745;28;20502;-58
2024/01/04 07:00:34;;;;;;;2.53;0.60;;;6.20;99.90;;;;;;5110725;28;20039;-58
2024/01/04 07:02:59;;;;;;;3.80;0.70;;;6.40;99.90;;;;;;5090287;28;20082;-58
2024/01/04 07:05:25;;;;;;;5.78;0.55;;;6.20;99.90;;;;;;5101466;28;20134;-59
2024/01/04 07:07:51;;;;;;;7.38;1.00;;;6.10;99.90;;;;;;5110508;28;20067;-57
2024/01/04 07:10:17;;;;;;;2.92;0.77;;;6.00;99.90;;;;;;5107616;28;20453;-58
2024/01/04 07:12:43;;;;;;;5.85;0.98;;;6.10;99.90;;;;;;5110583;28;20028;-59
2024/01/04 07:15:12;;;;;;;8.27;1.00;;;6.20;99.90;;;;;;5110715;28;20031;-58
2024/01/04 07:17:39;;;;;;;4.97;0.70;;;5.80;99.90;;;;;;5027443;28;20087;-58
2024/01/04 07:20:05;;;;;;;2.72;0.60;;;5.80;99.90;;;;;;5093397;28;20031;-59
2024/01/04 07:22:32;;;;;;;3.13;0.90;;;5.80;99.90;;;;;;5071374;28;20052;-59
2024/01/04 07:24:58;;;;;;;3.53;0.80;;;6.00;99.90;;;;;;5033737;28;20038;-59
2024/01/04 07:27:23;;;;;;;5.35;0.95;;;6.10;99.90;;;;;;5026275;28;20034;-58
2024/01/04 07:29:50;;;;;;;6.55;0.73;;;5.80;99.90;;;;;;5015342;28;20051;-57
2024/01/04 07:32:18;;;;;;;2.92;0.90;;;6.10;99.90;;;;;;5030446;28;20067;-59
2024/01/04 07:34:45;;;;;;;6.40;0.80;;;6.20;99.90;;;;;;5028474;28;20049;-59
2024/01/04 07:37:11;;;;;;;5.97;1.10;;;5.90;99.90;;;;;;5028515;28;20144;-58
2024/01/04 07:39:37;;;;;;;7.45;1.35;;;6.10;99.90;;;;;;5020748;28;20037;-59
2024/01/04 07:42:03;;;;;;;3.70;0.70;;;6.00;99.90;;;;;;5024288;28;20482;-59
2024/01/04 07:44:29;;;;;;;6.15;0.80;;;6.10;99.90;;;;;;5004807;28;20046;-60
2024/01/04 07:46:54;;;;;;;3.90;0.93;;;5.80;99.90;;;;;;5020027;28;20038;-58
2024/01/04 07:49:20;;;;;;;5.97;1.08;;;6.00;99.90;;;;;;5079133;28;20423;-58
2024/01/04 07:51:46;;;;;;;3.85;0.73;;;5.80;99.90;;;;;;5105423;28;20034;-59
2024/01/04 07:54:11;;;;;;;4.93;0.80;;;6.10;99.90;;;;;;5011623;28;20069;-59
2024/01/04 07:56:38;;;;;;;4.13;0.90;;;5.90;99.90;;;;;;5103933;28;20070;-59
2024/01/04 07:59:04;;;;;;;3.30;0.65;;;6.00;99.90;;;;;;5093895;28;20077;-59
2024/01/04 08:01:29;;;;;;;4.13;0.85;;;6.10;99.90;;;;;;5113348;27;20519;-58
2024/01/04 08:03:55;;;;;;;5.75;1.10;;;5.80;99.90;;;;;;5113434;28;20070;-58
2024/01/04 08:06:21;;;;;;;4.30;1.00;;;6.10;99.90;;;;;;5026739;28;20036;-59
2024/01/04 08:08:47;;;;;;;3.97;0.80;;;6.30;99.90;;;;;;5106438;28;20043;-59
2024/01/04 08:11:12;;;;;;;4.47;0.90;;;6.10;99.90;;;;;;5113966;28;20070;-58
2024/01/04 08:13:38;;;;;;;5.35;1.35;;;6.00;99.90;;;;;;5059124;28;20079;-58
2024/01/04 08:16:04;;;;;;;6.95;2.00;;;6.10;99.90;;;;;;5030285;28;20038;-58
2024/01/04 08:18:31;;;;;;;3.35;0.75;;;6.20;99.90;;;;;;5029936;28;20097;-58
2024/01/04 08:20:56;;;;;;;1.83;0.52;;;6.20;99.90;;;;;;5029758;28;20045;-58
2024/01/04 08:23:22;;;;;;;2.60;0.57;;;5.90;99.90;;;;;;5069005;28;20032;-57
2024/01/04 08:25:48;;;;;;;4.47;1.00;;;6.00;99.90;;;;;;5107951;28;20039;-58
2024/01/04 08:28:14;;;;;;;4.30;1.00;;;6.00;99.90;;;;;;5040470;28;20483;-58
2024/01/04 08:30:39;;;;;;;5.47;0.80;;;5.80;99.90;;;;;;5017437;28;20065;-61
2024/01/04 08:33:05;;;;;;;6.93;0.95;;;5.80;99.90;;;;;;5088321;28;20069;-59
2024/01/04 08:35:31;;;;;;;4.65;0.90;;;5.80;99.90;;;;;;5081638;28;20039;-58
2024/01/04 08:37:57;;;;;;;6.03;1.02;;;6.20;99.90;;;;;;5076113;28;20112;-59
2024/01/04 08:40:22;;;;;;;4.93;1.00;;;6.10;99.90;;;;;;5069241;28;20080;-58
2024/01/04 08:42:48;;;;;;;5.30;0.93;;;6.10;99.90;;;;;;5071414;28;20040;-59
2024/01/04 08:45:14;;;;;;;5.60;1.08;;;6.20;99.90;;;;;;5092849;28;20042;-59
2024/01/04 08:47:40;;;;;;;4.20;0.90;;;5.90;99.90;;;;;;5082635;28;20042;-58
2024/01/04 08:50:06;;;;;;;5.50;1.02;;;5.70;99.90;;;;;;5104568;28;20749;-59
2024/01/04 08:52:32;;;;;;;4.88;0.80;;;6.10;99.90;;;;;;5089704;28;20042;-58
2024/01/04 08:54:58;;;;;;;4.90;0.88;;;5.70;99.90;;;;;;5016973;28;20041;-58
2024/01/04 08:57:24;;;;;;;5.72;1.33;;;5.70;99.90;;;;;;5087522;28;20382;-59
2024/01/04 08:59:50;;;;;;;3.28;0.80;;;5.90;99.90;;;;;;5092428;28;20033;-58
2024/01/04 09:02:16;;;;;;;6.38;0.95;;;6.30;99.90;;;;;;5097664;28;20059;-58
2024/01/04 09:04:42;;;;;;;3.80;0.90;;;6.30;99.90;;;;;;5096960;28;20043;-58
2024/01/04 09:07:08;;;;;;;4.30;0.98;;;6.00;99.90;;;;;;5104072;28;20470;-59
2024/01/04 09:09:34;;;;;;;6.25;0.60;;;6.20;99.90;;;;;;5092532;28;20032;-58
2024/01/04 09:12:00;;;;;;;9.93;1.00;;;6.20;99.90;;;;;;5091824;28;20038;-60
2024/01/04 09:14:26;;;;;;;8.38;1.40;;;6.20;99.90;;;;;;5083650;28;20492;-60
2024/01/04 09:16:52;;;;;;;4.68;1.10;;;6.00;99.90;;;;;;5076633;28;20043;-60
2024/01/04 09:19:19;;;;;;;5.00;1.02;;;5.90;99.90;;;;;;5072217;28;20086;-59
2024/01/04 09:21:50;;;;;;;4.57;1.27;;;6.00;99.90;;;;;;5064921;28;20033;-58
2024/01/04 09:24:17;;;;;;;5.43;1.25;;;6.20;99.90;;;;;;5101376;28;20039;-58
2024/01/04 09:26:44;;;;;;;3.95;1.17;;;5.90;99.90;;;;;;5094976;28;20450;-58
2024/01/04 09:29:11;;;;;;;6.55;1.15;;;5.90;99.90;;;;;;5082720;28;20048;-58
2024/01/04 09:31:37;;;;;;;7.70;1.30;;;6.30;99.90;;;;;;5086184;28;20436;-59
2024/01/04 09:34:04;;;;;;;5.80;0.90;;;6.20;99.90;;;;;;5101168;28;20042;-59
2024/01/04 09:36:30;;;;;;;5.95;1.40;;;6.20;99.90;;;;;;5094111;28;20148;-59
2024/01/04 09:38:56;;;;;;;4.10;1.15;;;6.30;99.90;;;;;;5088374;28;20096;-59
2024/01/04 09:41:29;;;;;;;2.85;0.90;;;6.00;99.90;;;;;;5082347;28;20066;-59
2024/01/04 09:43:58;;;;;;;5.90;1.03;;;6.10;99.90;;;;;;5066372;28;20122;-58
2024/01/04 09:46:25;;;;;;;8.07;1.23;;;5.80;99.90;;;;;;5066744;28;20038;-58
2024/01/04 09:49:01;;;;;;;6.03;0.82;;;6.00;99.90;;;;;;5088243;28;20482;-59
2024/01/04 09:51:38;;;;;;;5.88;1.17;;;6.20;99.90;;;;;;5106097;28;20065;-58
2024/01/04 09:54:08;;;;;;;6.65;1.30;;;6.10;99.90;;;;;;5095601;28;20556;-59
2024/01/04 09:56:42;;;;;;;3.53;0.88;;;5.80;99.90;;;;;;5021650;28;20049;-57
2024/01/04 09:59:08;;;;;;;7.22;1.27;;;6.40;99.90;;;;;;5083530;28;20404;-58
2024/01/04 10:01:37;;;;;;;6.28;1.00;;;6.30;99.90;;;;;;5080320;28;20524;-57
2024/01/04 10:04:14;;;;;;;2.70;0.80;;;6.00;99.90;;;;;;5076722;28;20112;-59
2024/01/04 10:06:41;;;;;;;4.35;0.93;;;6.10;99.90;;;;;;5088888;28;20076;-58
2024/01/04 10:09:23;;;;;;;5.53;1.13;;;6.20;99.90;;;;;;5102503;28;20040;-59
2024/01/04 10:12:05;;;;;;;5.72;1.15;;;6.00;99.90;;;;;;5076550;28;20043;-59
2024/01/04 10:14:32;;;;;;;5.38;1.00;;;6.40;99.90;;;;;;5067930;28;20035;-58
2024/01/04 10:17:19;;;;;;;8.50;1.20;;;6.20;99.90;;;;;;5070671;28;20544;-58
2024/01/04 10:19:44;;;;;;;5.15;1.13;;;6.10;99.90;;;;;;5055745;28;20411;-58
2024/01/04 10:22:10;;;;;;;5.45;0.93;;;6.20;99.90;;;;;;5027943;28;20044;-57
2024/01/04 10:24:38;;;;;;;5.93;1.00;;;6.30;99.90;;;;;;5073877;28;20495;-59
2024/01/04 10:27:06;;;;;;;26.27;15.65;;;6.20;99.90;;;;;;5110985;28;20031;-58
2024/01/04 10:29:36;;;;;;;32.20;15.93;;;6.10;99.90;;;;;;5110897;28;20039;-58
2024/01/04 10:32:04;;;;;;;33.90;17.33;;;6.40;99.90;;;;;;5110904;28;20036;-58
2024/01/04 10:34:34;;;;;;;10.43;4.72;;;6.30;99.90;;;;;;5110903;28;20048;-58
2024/01/04 10:37:17;;;;;;;17.00;8.32;;;6.40;99.90;;;;;;5110756;28;20473;-58
2024/01/04 10:39:57;;;;;;;14.45;7.55;;;6.40;99.90;;;;;;5093037;28;20402;-59
2024/01/04 10:42:23;;;;;;;5.63;1.50;;;6.40;99.90;;;;;;5103285;28;20035;-57
2024/01/04 10:44:53;;;;;;;5.10;0.98;;;6.50;99.90;;;;;;5110076;28;20075;-58
2024/01/04 10:47:19;;;;;;;11.15;3.28;;;6.50;99.90;;;;;;5101993;28;20050;-58
2024/01/04 10:49:47;;;;;;;5.88;2.00;;;6.50;99.90;;;;;;5111018;28;20110;-59
2024/01/04 10:52:19;;;;;;;10.00;2.83;;;6.50;99.90;;;;;;5027840;28;20037;-58
2024/01/04 10:54:46;;;;;;;10.00;3.22;;;6.40;99.90;;;;;;5081115;28;20047;-58
2024/01/04 10:57:12;;;;;;;5.57;1.60;;;6.60;99.90;;;;;;5110625;28;20039;-58
2024/01/04 10:59:42;;;;;;;7.53;1.73;;;6.60;99.90;;;;;;5113305;28;20119;-58
2024/01/04 11:02:11;;;;;;;7.10;1.40;;;6.50;99.90;;;;;;5115052;27;20031;-59
2024/01/04 11:04:40;;;;;;;3.47;1.00;;;6.40;99.90;;;;;;5114929;28;20521;-59
2024/01/04 11:07:06;;;;;;;5.13;0.95;;;6.60;99.90;;;;;;5114960;28;20084;-58
2024/01/04 11:09:34;;;;;;;6.22;0.98;;;6.40;99.90;;;;;;5114819;28;20042;-59
2024/01/04 11:12:02;;;;;;;7.18;0.80;;;6.30;99.90;;;;;;5114865;28;20032;-58
2024/01/04 11:14:28;;;;;;;4.55;1.10;;;6.50;99.90;;;;;;5114433;27;20509;-59
2024/01/04 11:17:20;;;;;;;6.45;1.58;;;6.40;99.90;;;;;;5108411;28;20110;-58
2024/01/04 11:20:03;;;;;;;7.22;1.30;;;6.50;99.90;;;;;;5115124;28;20058;-58
2024/01/04 11:22:28;;;;;;;6.85;1.40;;;6.60;99.90;;;;;;5114669;28;20051;-59
2024/01/04 11:25:12;;;;;;;5.88;1.08;;;6.40;99.90;;;;;;5114795;28;20562;-58
2024/01/04 11:27:38;;;;;;;4.20;1.08;;;6.40;99.90;;;;;;5114651;28;20047;-59
2024/01/04 11:30:05;;;;;;;4.55;1.08;;;6.60;99.90;;;;;;5114422;28;20040;-58
2024/01/04 11:32:34;;;;;;;3.78;1.02;;;6.50;99.90;;;;;;5114461;28;20506;-60
2024/01/04 11:35:00;;;;;;;7.22;1.27;;;6.70;99.90;;;;;;5032785;28;20045;-58
2024/01/04 11:37:26;;;;;;;6.85;1.90;;;6.60;99.90;;;;;;5030117;28;20356;-59
2024/01/04 11:40:00;;;;;;;7.22;1.23;;;6.80;99.90;;;;;;5097369;28;20114;-59
2024/01/04 11:42:39;;;;;;;;;;;6.60;99.90;;;;;;5114002;28;20482;-58
2024/01/04 11:45:13;;;;;;;4.65;1.42;;;6.60;99.90;;;;;;5114077;27;20304;-58
2024/01/04 11:47:40;;;;;;;4.35;1.13;;;6.60;99.90;;;;;;5114224;28;20131;-57
2024/01/04 11:50:28;;;;;;;6.97;1.73;;;6.80;99.90;;;;;;5114238;28;20036;-59
2024/01/04 11:53:06;;;;;;;10.05;1.60;;;6.80;99.90;;;;;;5114045;28;20604;-58
2024/01/04 11:55:33;;;;;;;8.35;1.20;;;6.90;99.90;;;;;;5107751;28;20398;-58
2024/01/04 11:58:08;;;;;;;5.65;1.20;;;6.90;99.90;;;;;;5113455;28;20062;-58
2024/01/04 12:01:02;;;;;;;5.28;1.15;;;6.80;99.90;;;;;;5113308;28;20043;-58
2024/01/04 12:03:29;;;;;;;4.70;0.90;;;6.80;99.90;;;;;;5029338;28;20064;-59
2024/01/04 12:05:55;;;;;;;5.88;1.20;;;6.90;99.90;;;;;;5030150;28;20184;-59
2024/01/04 12:08:28;;;;;;;4.82;1.27;;;6.80;99.90;;;;;;5030216;28;20535;-58
2024/01/04 12:10:55;;;;;;;5.73;0.97;;;6.90;99.90;;;;;;5028945;28;20053;-58
2024/01/04 12:13:21;;;;;;;7.35;1.40;;;6.90;99.90;;;;;;5029818;28;20052;-59
2024/01/04 12:15:46;;;;;;;3.47;1.13;;;6.90;99.90;;;;;;5028838;28;20041;-59
2024/01/04 12:18:12;;;;;;;5.60;1.25;;;6.90;99.90;;;;;;5028336;28;20037;-58
2024/01/04 12:20:38;;;;;;;5.95;1.38;;;6.80;99.90;;;;;;5022360;28;20451;-57
2024/01/04 12:23:06;;;;;;;3.90;1.20;;;6.80;99.90;;;;;;5112367;28;20120;-58
2024/01/04 12:25:36;;;;;;;4.90;1.20;;;6.80;99.90;;;;;;5105983;28;20048;-60
2024/01/04 12:28:02;;;;;;;5.88;1.23;;;7.00;99.90;;;;;;5096134;28;20486;-59
2024/01/04 12:30:29;;;;;;;5.45;1.40;;;6.70;99.90;;;;;;5021093;28;20040;-59
2024/01/04 12:33:01;;;;;;;7.47;1.30;;;6.90;99.90;;;;;;5082277;28;20038;-58
2024/01/04 12:35:27;;;;;;;5.82;1.70;;;6.90;99.90;;;;;;5075514;28;20046;-58
2024/01/04 12:38:03;;;;;;;5.18;1.42;;;6.80;99.90;;;;;;5066705;28;20146;-59
2024/01/04 12:40:42;;;;;;;5.43;1.52;;;6.70;99.90;;;;;;5008215;28;20046;-58
2024/01/04 12:43:10;;;;;;;5.93;1.20;;;6.70;99.90;;;;;;5095653;28;20043;-59
2024/01/04 12:45:36;;;;;;;3.95;1.00;;;7.00;99.90;;;;;;5098472;28;20036;-58
2024/01/04 12:48:03;;;;;;;4.82;1.15;;;6.70;99.90;;;;;;5087375;28;20031;-58
2024/01/04 12:50:34;;;;;;;5.15;0.90;;;6.80;99.90;;;;;;5083006;28;20036;-59
2024/01/04 12:53:01;;;;;;;3.30;1.05;;;6.90;99.90;;;;;;5080811;28;20534;-58
2024/01/04 12:55:27;;;;;;;5.85;1.20;;;6.70;99.90;;;;;;5072329;28;20047;-59
2024/01/04 12:57:53;;;;;;;3.90;1.10;;;6.80;99.90;;;;;;5062786;28;20084;-59